createdAt,value
2019-05-03T00:01:52.821Z,9.75
2019-05-03T00:07:11.939Z,9.70
2019-05-03T00:10:22.242Z,9.65
2019-05-03T00:12:52.280Z,9.70
2019-05-03T00:15:40.340Z,9.77
2019-05-03T00:18:09.071Z,9.73
2019-05-03T00:20:37.721Z,9.77
2019-05-03T00:23:06.395Z,9.69
2019-05-03T00:25:34.920Z,9.69
2019-05-03T00:28:03.557Z,9.72
2019-05-03T00:30:32.235Z,9.72
2019-05-03T00:33:02.827Z,9.65
2019-05-03T00:35:51.943Z,9.63
2019-05-03T00:38:21.851Z,9.73
2019-05-03T00:40:52.385Z,9.66
2019-05-03T00:43:22.249Z,9.65
2019-05-03T00:45:52.086Z,9.60
2019-05-03T00:48:21.956Z,9.65
2019-05-03T00:50:51.796Z,9.56
2019-05-03T00:53:22.415Z,9.55
2019-05-03T00:55:52.472Z,9.53
2019-05-03T00:58:22.605Z,9.52
2019-05-03T01:00:52.483Z,9.54
2019-05-03T01:03:22.092Z,9.47
2019-05-03T01:05:52.948Z,9.59
2019-05-03T01:08:22.176Z,9.54
2019-05-03T01:10:51.648Z,9.53
2019-05-03T01:13:22.229Z,9.51
2019-05-03T01:18:32.378Z,9.41
2019-05-03T01:21:02.306Z,9.42
2019-05-03T01:23:32.589Z,9.51
2019-05-03T01:26:02.452Z,9.49
2019-05-03T01:28:32.465Z,9.45
2019-05-03T01:31:02.961Z,9.49
2019-05-03T01:33:32.366Z,9.52
2019-05-03T01:36:02.676Z,9.55
2019-05-03T01:38:32.531Z,9.56
2019-05-03T01:41:01.826Z,9.57
2019-05-03T01:43:32.194Z,9.58
2019-05-03T01:46:02.686Z,9.67
2019-05-03T01:48:52.139Z,9.52
2019-05-03T01:51:41.962Z,9.51
2019-05-03T01:54:12.192Z,9.46
2019-05-03T01:56:49.999Z,9.43
2019-05-03T01:59:12.476Z,9.43
2019-05-03T02:02:02.279Z,9.51
2019-05-03T02:04:50.633Z,9.40
2019-05-03T02:07:19.349Z,9.44
2019-05-03T02:10:07.587Z,9.44
2019-05-03T02:12:57.012Z,9.44
2019-05-03T02:15:25.694Z,9.39
2019-05-03T02:17:54.382Z,9.39
2019-05-03T02:20:22.935Z,9.40
2019-05-03T02:22:52.261Z,9.39
2019-05-03T02:25:22.559Z,9.40
2019-05-03T02:27:52.691Z,9.41
2019-05-03T02:30:24.741Z,9.36
2019-05-03T02:32:53.359Z,9.44
2019-05-03T02:35:22.839Z,9.40
2019-05-03T02:38:12.991Z,9.39
2019-05-03T02:41:03.261Z,9.46
2019-05-03T02:43:51.590Z,9.47
2019-05-03T02:46:39.506Z,9.47
2019-05-03T02:49:27.671Z,9.43
2019-05-03T02:51:56.957Z,9.42
2019-05-03T02:54:46.495Z,9.44
2019-05-03T03:00:45.582Z,9.42
2019-05-03T03:06:10.932Z,9.52
2019-05-03T03:09:19.651Z,9.53
2019-05-03T03:12:28.087Z,9.47
2019-05-03T03:15:36.556Z,9.49
2019-05-03T03:18:45.739Z,9.41
2019-05-03T03:21:36.089Z,9.45
2019-05-03T03:24:46.007Z,9.48
2019-05-03T03:27:55.670Z,9.47
2019-05-03T03:31:02.984Z,9.51
2019-05-03T03:33:32.587Z,9.55
2019-05-03T03:36:44.715Z,9.45
2019-05-03T03:42:07.568Z,9.35
2019-05-03T03:44:57.389Z,9.39
2019-05-03T03:48:05.849Z,9.35
2019-05-03T03:51:15.556Z,9.39
2019-05-03T03:54:26.023Z,9.43
2019-05-03T03:57:35.710Z,9.52
2019-05-03T04:00:25.754Z,9.42
2019-05-03T04:02:55.780Z,9.32
2019-05-03T04:05:25.609Z,9.29
2019-05-03T04:08:16.497Z,9.35
2019-05-03T04:10:46.376Z,9.32
2019-05-03T04:13:55.973Z,9.33
2019-05-03T04:16:45.454Z,9.35
2019-05-03T04:19:36.165Z,9.32
2019-05-03T04:22:05.906Z,9.35
2019-05-03T04:25:15.634Z,9.37
2019-05-03T04:27:45.994Z,9.37
2019-05-03T04:30:16.506Z,9.30
2019-05-03T04:32:46.257Z,9.33
2019-05-03T04:35:16.312Z,9.32
2019-05-03T04:37:45.822Z,9.43
2019-05-03T04:40:15.600Z,9.47
2019-05-03T04:42:46.458Z,9.42
2019-05-03T04:45:36.616Z,9.42
2019-05-03T04:51:00.579Z,9.38
2019-05-03T04:56:46.394Z,9.43
2019-05-03T04:59:15.952Z,9.43
2019-05-03T05:02:26.236Z,9.46
2019-05-03T05:04:55.708Z,9.55
2019-05-03T05:07:26.309Z,9.56
2019-05-03T05:09:56.486Z,9.60
2019-05-03T05:12:26.361Z,9.64
2019-05-03T05:14:56.434Z,9.65
2019-05-03T05:20:45.361Z,9.81
2019-05-03T05:23:15.230Z,9.90
2019-05-03T05:26:02.997Z,9.99
2019-05-03T05:29:11.440Z,10.05
2019-05-03T05:31:40.153Z,10.16
2019-05-03T05:34:09.061Z,10.21
2019-05-03T05:36:37.660Z,10.26
2019-05-03T05:39:46.126Z,10.38
2019-05-03T05:42:15.000Z,10.32
2019-05-03T05:44:45.396Z,10.53
2019-05-03T05:47:34.543Z,10.64
2019-05-03T05:52:58.046Z,10.60
2019-05-03T05:55:45.791Z,10.57
2019-05-03T06:03:25.521Z,10.45
2019-05-03T06:09:02.532Z,10.55
2019-05-03T06:11:50.346Z,10.46
2019-05-03T06:17:27.368Z,10.48
2019-05-03T06:20:15.600Z,10.80
2019-05-03T06:23:05.217Z,10.72
2019-05-03T06:33:34.776Z,10.71
2019-05-03T06:36:44.604Z,10.57
2019-05-03T06:39:15.077Z,10.55
2019-05-03T06:41:44.532Z,10.37
2019-05-03T06:44:14.466Z,10.24
2019-05-03T06:49:34.591Z,10.03
2019-05-03T06:55:14.358Z,9.85
2019-05-03T07:11:05.246Z,9.55
2019-05-03T07:13:34.567Z,9.70
2019-05-03T07:16:04.761Z,9.71
2019-05-03T07:18:35.281Z,9.71
2019-05-03T07:21:05.164Z,9.89
2019-05-03T07:23:34.976Z,9.89
2019-05-03T07:26:05.345Z,9.96
2019-05-03T07:28:46.477Z,10.07
2019-05-03T07:31:05.053Z,10.19
2019-05-03T07:36:09.122Z,9.76
2019-05-03T07:38:37.682Z,9.64
2019-05-03T07:41:06.332Z,9.67
2019-05-03T07:43:36.061Z,9.64
2019-05-03T07:46:45.283Z,9.70
2019-05-03T07:49:15.345Z,9.75
2019-05-03T07:51:44.886Z,9.65
2019-05-03T07:54:15.710Z,9.61
2019-05-03T07:59:20.419Z,9.67
2019-05-03T08:04:38.210Z,9.98
2019-05-03T08:07:19.307Z,9.92
2019-05-03T08:09:37.233Z,9.96
2019-05-03T08:12:05.920Z,10.11
2019-05-03T08:14:35.699Z,10.08
2019-05-03T08:17:05.204Z,10.17
2019-05-03T08:19:35.912Z,10.20
2019-05-03T08:22:05.555Z,10.13
2019-05-03T08:24:34.725Z,10.15
2019-05-03T08:27:05.162Z,10.08
2019-05-03T08:29:35.271Z,10.20
2019-05-03T08:32:24.643Z,10.27
2019-05-03T08:35:12.393Z,10.22
2019-05-03T08:42:56.121Z,10.42
2019-05-03T08:45:25.575Z,10.84
2019-05-03T08:48:35.435Z,11.07
2019-05-03T08:51:05.385Z,11.30
2019-05-03T08:53:35.786Z,11.10
2019-05-03T08:56:05.264Z,11.29
2019-05-03T08:58:34.958Z,11.41
2019-05-03T09:03:52.802Z,11.50
2019-05-03T09:06:21.441Z,11.52
2019-05-03T09:08:50.125Z,11.57
2019-05-03T09:11:30.601Z,11.59
2019-05-03T09:14:08.296Z,11.36
2019-05-03T09:16:37.058Z,11.64
2019-05-03T09:19:05.848Z,12.09
2019-05-03T09:21:34.810Z,12.36
2019-05-03T09:24:04.830Z,12.99
2019-05-03T09:26:34.881Z,13.55
2019-05-03T09:29:05.523Z,13.74
2019-05-03T09:31:35.242Z,13.74
2019-05-03T09:34:08.013Z,14.10
2019-05-03T09:36:35.145Z,14.05
2019-05-03T09:44:38.013Z,13.30
2019-05-03T09:47:25.930Z,13.27
2019-05-03T09:49:55.841Z,13.33
2019-05-03T09:52:25.241Z,13.39
2019-05-03T09:57:30.867Z,13.90
2019-05-03T10:00:00.261Z,14.38
2019-05-03T10:02:30.005Z,14.27
2019-05-03T10:04:58.622Z,13.67
2019-05-03T10:07:27.292Z,13.82
2019-05-03T10:09:55.971Z,13.71
2019-05-03T10:15:54.934Z,14.09
2019-05-03T10:18:25.464Z,14.36
2019-05-03T10:20:56.148Z,14.65
2019-05-03T10:23:45.228Z,13.85
2019-05-03T10:26:14.929Z,13.32
2019-05-03T10:28:44.694Z,12.91
2019-05-03T10:31:13.509Z,12.87
2019-05-03T10:34:01.307Z,13.00
2019-05-03T10:36:30.065Z,12.90
2019-05-03T10:39:18.029Z,12.91
2019-05-03T10:41:46.648Z,12.92
2019-05-03T10:44:15.329Z,13.11
2019-05-03T10:47:05.378Z,13.23
2019-05-03T10:49:35.210Z,13.42
2019-05-03T10:54:55.739Z,14.58
2019-05-03T11:00:53.509Z,15.05
2019-05-03T11:03:23.177Z,15.27
2019-05-03T11:05:51.776Z,15.14
2019-05-03T11:08:20.451Z,14.55
2019-05-03T11:10:49.112Z,14.56
2019-05-03T11:13:17.747Z,14.66
2019-05-03T11:15:46.436Z,15.07
2019-05-03T11:18:15.120Z,15.64
2019-05-03T11:20:45.285Z,16.03
2019-05-03T11:23:14.594Z,15.76
2019-05-03T11:25:45.315Z,14.80
2019-05-03T11:28:35.396Z,14.08
2019-05-03T11:31:24.858Z,13.75
2019-05-03T11:36:48.617Z,13.13
2019-05-03T11:39:17.330Z,13.07
2019-05-03T11:42:05.077Z,13.31
2019-05-03T11:44:52.760Z,13.78
2019-05-03T11:47:21.510Z,13.88
2019-05-03T11:49:50.075Z,14.84
2019-05-03T11:52:18.749Z,14.67
2019-05-03T11:54:47.453Z,13.83
2019-05-03T11:57:35.779Z,13.84
2019-05-03T12:00:45.116Z,13.51
2019-05-03T12:08:29.641Z,13.12
2019-05-03T12:11:01.474Z,12.95
2019-05-03T12:13:47.835Z,13.14
2019-05-03T12:16:24.025Z,13.36
2019-05-03T12:18:53.441Z,13.72
2019-05-03T12:21:18.679Z,14.30
2019-05-03T12:23:48.380Z,14.72
2019-05-03T12:26:18.779Z,15.35
2019-05-03T12:28:48.409Z,15.95
2019-05-03T12:31:29.435Z,16.10
2019-05-03T12:33:47.444Z,15.48
2019-05-03T12:36:16.146Z,15.15
2019-05-03T12:38:44.774Z,14.55
2019-05-03T12:41:15.043Z,13.62
2019-05-03T12:43:43.796Z,13.26
2019-05-03T12:46:31.700Z,13.17
2019-05-03T12:49:00.391Z,13.11
2019-05-03T12:51:29.030Z,13.18
2019-05-03T12:53:57.664Z,13.49
2019-05-03T12:56:32.570Z,13.53
2019-05-03T13:02:05.026Z,13.69
2019-05-03T13:04:52.786Z,14.04
2019-05-03T13:07:40.610Z,14.17
2019-05-03T13:10:49.082Z,14.33
2019-05-03T13:13:17.842Z,14.61
2019-05-03T13:15:46.487Z,14.69
2019-05-03T13:18:15.656Z,14.59
2019-05-03T13:20:45.746Z,15.13
2019-05-03T13:23:14.528Z,15.66
2019-05-03T13:28:34.093Z,15.90
2019-05-03T13:31:02.715Z,15.15
2019-05-03T13:36:10.806Z,14.87
2019-05-03T13:38:39.374Z,14.17
2019-05-03T13:41:08.063Z,14.21
2019-05-03T13:43:36.703Z,14.71
2019-05-03T13:46:24.777Z,14.95
2019-05-03T13:48:55.473Z,14.87
2019-05-03T13:51:25.305Z,15.39
2019-05-03T13:54:14.930Z,15.77
2019-05-03T13:56:43.968Z,15.78
2019-05-03T13:59:18.980Z,15.59
2019-05-03T14:01:44.726Z,15.79
2019-05-03T14:04:14.804Z,15.48
2019-05-03T14:06:44.697Z,15.65
2019-05-03T14:09:14.336Z,15.68
2019-05-03T14:11:44.823Z,15.26
2019-05-03T14:14:15.282Z,15.27
2019-05-03T14:25:32.401Z,14.70
2019-05-03T14:28:01.090Z,14.65
2019-05-03T14:30:29.778Z,14.46
2019-05-03T14:32:58.357Z,14.31
2019-05-03T14:35:46.324Z,14.54
2019-05-03T14:38:15.254Z,14.97
2019-05-03T14:40:47.328Z,14.73
2019-05-03T14:43:15.684Z,14.50
2019-05-03T14:45:44.330Z,14.79
2019-05-03T14:48:15.083Z,15.30
2019-05-03T14:50:45.424Z,15.15
2019-05-03T14:53:14.794Z,15.30
2019-05-03T14:56:05.051Z,15.22
2019-05-03T14:58:53.086Z,15.16
2019-05-03T15:01:40.865Z,14.74
2019-05-03T15:04:09.514Z,14.98
2019-05-03T15:06:38.150Z,14.80
2019-05-03T15:09:46.795Z,14.67
2019-05-03T15:12:15.384Z,14.84
2019-05-03T15:14:45.136Z,14.95
2019-05-03T15:17:14.373Z,15.70
2019-05-03T15:19:45.219Z,15.95
2019-05-03T15:22:14.669Z,15.52
2019-05-03T15:24:45.091Z,15.37
2019-05-03T15:27:14.448Z,15.23
2019-05-03T15:29:44.834Z,15.36
2019-05-03T15:32:15.465Z,15.21
2019-05-03T15:34:44.642Z,15.10
2019-05-03T15:37:14.860Z,14.87
2019-05-03T15:39:45.261Z,14.62
2019-05-03T15:45:45.080Z,14.52
2019-05-03T15:48:35.168Z,14.62
2019-05-03T15:51:04.794Z,14.35
2019-05-03T15:53:35.322Z,14.46
2019-05-03T15:56:05.448Z,14.25
2019-05-03T15:58:35.450Z,14.09
2019-05-03T16:01:04.670Z,13.94
2019-05-03T16:03:35.744Z,13.84
2019-05-03T16:06:05.338Z,13.81
2019-05-03T16:08:34.017Z,13.75
2019-05-03T16:11:02.703Z,13.68
2019-05-03T16:13:31.265Z,13.70
2019-05-03T16:15:59.947Z,13.68
2019-05-03T16:18:28.593Z,13.62
2019-05-03T16:20:57.274Z,13.56
2019-05-03T16:23:25.895Z,13.69
2019-05-03T16:26:14.305Z,13.63
2019-05-03T16:29:04.703Z,13.57
2019-05-03T16:31:34.417Z,13.79
2019-05-03T16:34:04.394Z,13.74
2019-05-03T16:36:36.753Z,13.75
2019-05-03T16:39:45.334Z,13.61
2019-05-03T16:42:15.544Z,13.47
2019-05-03T16:44:58.161Z,13.42
2019-05-03T16:47:26.888Z,13.32
2019-05-03T16:49:55.433Z,13.36
2019-05-03T16:55:19.045Z,13.19
2019-05-03T16:57:47.691Z,13.13
2019-05-03T17:00:56.227Z,13.07
2019-05-03T17:06:52.802Z,12.93
2019-05-03T17:09:40.556Z,12.66
2019-05-03T17:14:44.786Z,12.40
2019-05-03T17:17:14.847Z,12.19
2019-05-03T17:19:44.734Z,12.23
2019-05-03T17:22:17.233Z,12.09
2019-05-03T17:25:06.533Z,12.04
2019-05-03T17:27:35.505Z,12.13
2019-05-03T17:30:44.579Z,11.93
2019-05-03T17:33:13.421Z,11.75
2019-05-03T17:35:42.121Z,11.79
2019-05-03T17:38:10.993Z,11.75
2019-05-03T17:40:58.761Z,11.61
2019-05-03T17:46:16.624Z,11.43
2019-05-03T17:48:45.376Z,11.31
2019-05-03T17:54:08.792Z,11.43
2019-05-03T17:56:56.585Z,11.39
2019-05-03T17:59:44.522Z,11.28
2019-05-03T18:02:32.314Z,11.28
2019-05-03T18:05:20.782Z,11.21
2019-05-03T18:08:08.771Z,11.10
2019-05-03T18:13:14.281Z,10.98
2019-05-03T18:15:44.841Z,10.99
2019-05-03T18:18:13.274Z,10.91
2019-05-03T18:20:41.892Z,10.93
2019-05-03T18:23:10.527Z,10.86
2019-05-03T18:25:39.204Z,10.90
2019-05-03T18:28:07.838Z,10.89
2019-05-03T18:30:36.450Z,10.79
2019-05-03T18:33:05.134Z,10.74
2019-05-03T18:35:33.771Z,10.64
2019-05-03T18:38:02.431Z,10.57
2019-05-03T18:46:14.776Z,10.39
2019-05-03T18:48:44.549Z,10.22
2019-05-03T18:51:14.761Z,10.12
2019-05-03T18:53:45.050Z,10.11
2019-05-03T18:56:14.818Z,10.03
2019-05-03T18:58:45.007Z,10.03
2019-05-03T19:01:14.831Z,9.89
2019-05-03T19:06:34.652Z,9.82
2019-05-03T19:12:31.185Z,9.64
2019-05-03T19:18:15.419Z,9.59
2019-05-03T19:23:20.089Z,9.41
2019-05-03T19:25:49.662Z,9.49
2019-05-03T19:28:19.098Z,9.31
2019-05-03T19:30:47.946Z,9.19
2019-05-03T19:33:16.517Z,9.14
2019-05-03T19:35:45.210Z,9.12
2019-05-03T19:38:15.218Z,9.13
2019-05-03T19:40:45.295Z,9.16
2019-05-03T19:43:15.232Z,9.18
2019-05-03T19:45:45.115Z,9.22
2019-05-03T19:48:14.763Z,9.26
2019-05-03T19:50:44.582Z,9.32
2019-05-03T19:55:50.682Z,9.34
2019-05-03T19:58:35.350Z,9.39
2019-05-03T20:01:25.010Z,9.36
2019-05-03T20:11:46.074Z,9.22
2019-05-03T20:14:14.996Z,9.11
2019-05-03T20:16:44.972Z,9.12
2019-05-03T20:19:18.825Z,9.08
2019-05-03T20:22:05.178Z,9.05
2019-05-03T20:24:33.974Z,9.02
2019-05-03T20:27:21.924Z,9.01
2019-05-03T20:29:50.614Z,9.04
2019-05-03T20:32:19.254Z,9.03
2019-05-03T20:34:48.045Z,9.09
2019-05-03T20:37:16.740Z,9.02
2019-05-03T20:39:45.316Z,9.04
2019-05-03T20:50:22.025Z,8.97
2019-05-03T20:52:50.555Z,8.96
2019-05-03T20:55:38.506Z,8.99
2019-05-03T20:58:08.662Z,9.00
2019-05-03T21:00:37.460Z,9.03
2019-05-03T21:03:06.128Z,9.04
2019-05-03T21:05:37.367Z,9.00
2019-05-03T21:08:05.663Z,8.97
2019-05-03T21:10:35.668Z,8.93
2019-05-03T21:13:05.759Z,8.95
2019-05-03T21:15:53.864Z,8.93
2019-05-03T21:18:41.593Z,8.88
2019-05-03T21:21:29.323Z,8.88
2019-05-03T21:26:34.608Z,8.78
2019-05-03T21:29:04.754Z,8.72
2019-05-03T21:31:35.236Z,8.74
2019-05-03T21:34:05.655Z,8.86
2019-05-03T21:36:34.886Z,8.82
2019-05-03T21:39:26.717Z,8.76
2019-05-03T21:45:49.335Z,8.65
2019-05-03T21:48:37.094Z,8.69
2019-05-03T21:51:05.850Z,8.70
2019-05-03T21:53:34.572Z,8.69
2019-05-03T21:56:03.118Z,8.67
2019-05-03T21:58:31.622Z,8.64
2019-05-03T22:03:35.599Z,8.64
2019-05-03T22:06:04.230Z,8.62
2019-05-03T22:08:34.925Z,8.70
2019-05-03T22:11:44.687Z,8.69
2019-05-03T22:14:54.406Z,8.71
2019-05-03T22:17:41.863Z,8.74
2019-05-03T22:23:37.814Z,8.70
2019-05-03T22:29:17.198Z,8.69
2019-05-03T22:31:45.936Z,8.66
2019-05-03T22:34:34.812Z,8.69
2019-05-03T22:37:04.632Z,8.68
2019-05-03T22:39:33.291Z,8.65
2019-05-03T22:42:04.381Z,8.70
2019-05-03T22:44:33.111Z,8.79
2019-05-03T22:47:01.791Z,8.75
2019-05-03T22:49:30.413Z,8.78
2019-05-03T22:51:59.091Z,8.81
2019-05-03T22:54:27.959Z,8.75
2019-05-03T22:56:56.924Z,8.76
2019-05-03T22:59:25.559Z,8.79
2019-05-03T23:01:54.676Z,8.74
2019-05-03T23:04:25.264Z,8.80
2019-05-03T23:06:55.682Z,8.88
2019-05-03T23:09:25.371Z,8.83
2019-05-03T23:11:55.309Z,8.80
2019-05-03T23:17:18.605Z,8.75
2019-05-03T23:22:36.484Z,8.80
2019-05-03T23:25:25.012Z,8.70
2019-05-03T23:27:55.160Z,8.75
2019-05-03T23:30:25.117Z,8.73
2019-05-03T23:32:54.742Z,8.62
2019-05-03T23:35:24.635Z,8.57
2019-05-03T23:37:54.458Z,8.63
2019-05-03T23:40:23.125Z,8.60
2019-05-03T23:42:51.770Z,8.55
2019-05-03T23:45:20.431Z,8.61
2019-05-03T23:50:28.459Z,8.69
2019-05-03T23:52:57.119Z,8.69
2019-05-03T23:58:14.868Z,8.75
